sensor_id;sensor_type;location;lat;lon;timestamp;pressure;altitude;pressure_sealevel;temperature;humidity
43818;BME280;29868;47.360;18.984;2022-12-07T16:33:25;100221.13;;;2.11;100.00
43818;BME280;29868;47.360;18.984;2022-12-07T16:35:50;100221.25;;;1.97;100.00
43818;BME280;29868;47.360;18.984;2022-12-07T16:38:15;100219.97;;;1.87;100.00
43818;BME280;29868;47.360;18.984;2022-12-07T16:40:41;100218.84;;;1.82;100.00
43818;BME280;29868;47.360;18.984;2022-12-07T16:43:06;100222.34;;;1.66;100.00
43818;BME280;29868;47.360;18.984;2022-12-07T16:45:31;100221.19;;;1.59;100.00
43818;BME280;29868;47.360;18.984;2022-12-07T16:47:56;100225.84;;;1.50;100.00
43818;BME280;29868;47.360;18.984;2022-12-07T16:50:21;100221.06;;;1.40;100.00
43818;BME280;29868;47.360;18.984;2022-12-07T16:52:47;100227.38;;;1.46;100.00
43818;BME280;29868;47.360;18.984;2022-12-07T16:55:12;100227.75;;;1.54;100.00
43818;BME280;29868;47.360;18.984;2022-12-07T16:57:37;100229.66;;;1.40;100.00
43818;BME280;29868;47.360;18.984;2022-12-07T17:00:03;100225.91;;;1.17;100.00
43818;BME280;29868;47.360;18.984;2022-12-07T17:02:29;100225.00;;;0.99;100.00
43818;BME280;29868;47.360;18.984;2022-12-07T17:04:54;100236.47;;;0.91;100.00
43818;BME280;29868;47.360;18.984;2022-12-07T17:07:19;100244.00;;;0.88;100.00
43818;BME280;29868;47.360;18.984;2022-12-07T17:09:44;100237.28;;;0.73;100.00
43818;BME280;29868;47.360;18.984;2022-12-07T17:12:10;100240.38;;;0.68;100.00
43818;BME280;29868;47.360;18.984;2022-12-07T17:14:35;100235.13;;;0.65;100.00
43818;BME280;29868;47.360;18.984;2022-12-07T17:17:19;100237.34;;;0.59;100.00
43818;BME280;29868;47.360;18.984;2022-12-07T17:19:44;100235.91;;;0.64;100.00
43818;BME280;29868;47.360;18.984;2022-12-07T17:22:10;100234.38;;;0.51;100.00
43818;BME280;29868;47.360;18.984;2022-12-07T17:24:37;100236.13;;;0.36;100.00
43818;BME280;29868;47.360;18.984;2022-12-07T17:27:02;100244.50;;;0.33;100.00
43818;BME280;29868;47.360;18.984;2022-12-07T17:29:28;100249.34;;;0.29;100.00
43818;BME280;29868;47.360;18.984;2022-12-07T17:31:53;100254.91;;;0.21;100.00
43818;BME280;29868;47.360;18.984;2022-12-07T17:34:18;100251.56;;;0.22;100.00
43818;BME280;29868;47.360;18.984;2022-12-07T17:36:43;100256.19;;;0.13;100.00
43818;BME280;29868;47.360;18.984;2022-12-07T17:39:10;100256.97;;;0.12;100.00
43818;BME280;29868;47.360;18.984;2022-12-07T17:41:38;100258.34;;;0.22;100.00
43818;BME280;29868;47.360;18.984;2022-12-07T17:44:22;100266.75;;;0.19;100.00
43818;BME280;29868;47.360;18.984;2022-12-07T17:46:49;100261.47;;;0.16;100.00
43818;BME280;29868;47.360;18.984;2022-12-07T17:49:14;100265.09;;;0.05;100.00
43818;BME280;29868;47.360;18.984;2022-12-07T17:51:40;100264.41;;;-0.07;100.00
43818;BME280;29868;47.360;18.984;2022-12-07T17:54:23;100258.78;;;-0.16;100.00
43818;BME280;29868;47.360;18.984;2022-12-07T17:56:49;100268.19;;;-0.15;100.00
43818;BME280;29868;47.360;18.984;2022-12-07T17:59:14;100265.47;;;-0.18;100.00
43818;BME280;29868;47.360;18.984;2022-12-07T18:01:40;100271.63;;;-0.15;100.00
43818;BME280;29868;47.360;18.984;2022-12-07T18:04:05;100270.22;;;-0.25;100.00
43818;BME280;29868;47.360;18.984;2022-12-07T18:06:31;100269.09;;;-0.30;100.00
43818;BME280;29868;47.360;18.984;2022-12-07T18:08:56;100270.47;;;-0.35;100.00
43818;BME280;29868;47.360;18.984;2022-12-07T18:11:21;100264.25;;;-0.40;100.00
43818;BME280;29868;47.360;18.984;2022-12-07T18:13:47;100271.81;;;-0.41;100.00
43818;BME280;29868;47.360;18.984;2022-12-07T18:16:13;100265.66;;;-0.45;100.00
43818;BME280;29868;47.360;18.984;2022-12-07T18:18:39;100269.59;;;-0.50;100.00
43818;BME280;29868;47.360;18.984;2022-12-07T18:21:11;100268.72;;;-0.51;100.00
43818;BME280;29868;47.360;18.984;2022-12-07T18:23:39;100267.78;;;-0.53;100.00
43818;BME280;29868;47.360;18.984;2022-12-07T18:26:04;100270.13;;;-0.56;100.00
43818;BME280;29868;47.360;18.984;2022-12-07T18:28:30;100259.81;;;-0.57;100.00
43818;BME280;29868;47.360;18.984;2022-12-07T18:30:55;100257.13;;;-0.60;100.00
43818;BME280;29868;47.360;18.984;2022-12-07T18:33:20;100263.97;;;-0.59;100.00
43818;BME280;29868;47.360;18.984;2022-12-07T18:35:46;100262.84;;;-0.64;100.00
43818;BME280;29868;47.360;18.984;2022-12-07T18:38:15;100260.09;;;-0.67;100.00
43818;BME280;29868;47.360;18.984;2022-12-07T18:40:41;100267.56;;;-0.70;100.00
43818;BME280;29868;47.360;18.984;2022-12-07T18:43:07;100268.00;;;-0.78;100.00
43818;BME280;29868;47.360;18.984;2022-12-07T18:45:36;100263.56;;;-0.80;100.00
43818;BME280;29868;47.360;18.984;2022-12-07T18:48:01;100262.69;;;-0.81;100.00
43818;BME280;29868;47.360;18.984;2022-12-07T18:50:27;100266.25;;;-0.79;100.00
43818;BME280;29868;47.360;18.984;2022-12-07T18:52:52;100269.75;;;-0.77;100.00
43818;BME280;29868;47.360;18.984;2022-12-07T18:55:17;100276.16;;;-0.83;100.00
43818;BME280;29868;47.360;18.984;2022-12-07T18:57:43;100281.34;;;-0.82;100.00
43818;BME280;29868;47.360;18.984;2022-12-07T19:00:08;100269.41;;;-0.83;100.00
43818;BME280;29868;47.360;18.984;2022-12-07T19:02:33;100276.88;;;-0.86;100.00
43818;BME280;29868;47.360;18.984;2022-12-07T19:04:59;100274.31;;;-0.86;100.00
43818;BME280;29868;47.360;18.984;2022-12-07T19:07:26;100280.63;;;-0.94;100.00
43818;BME280;29868;47.360;18.984;2022-12-07T19:09:51;100278.84;;;-0.95;100.00
43818;BME280;29868;47.360;18.984;2022-12-07T19:12:16;100281.13;;;-1.00;100.00
43818;BME280;29868;47.360;18.984;2022-12-07T19:14:42;100281.91;;;-1.01;100.00
43818;BME280;29868;47.360;18.984;2022-12-07T19:17:08;100279.88;;;-1.06;100.00
43818;BME280;29868;47.360;18.984;2022-12-07T19:19:35;100280.44;;;-0.97;100.00
43818;BME280;29868;47.360;18.984;2022-12-07T19:22:02;100280.78;;;-1.06;100.00
43818;BME280;29868;47.360;18.984;2022-12-07T19:24:28;100276.75;;;-1.02;100.00
43818;BME280;29868;47.360;18.984;2022-12-07T19:26:53;100271.66;;;-1.02;100.00
43818;BME280;29868;47.360;18.984;2022-12-07T19:29:18;100266.63;;;-1.01;100.00
43818;BME280;29868;47.360;18.984;2022-12-07T19:31:44;100273.00;;;-1.07;100.00
43818;BME280;29868;47.360;18.984;2022-12-07T19:34:10;100272.06;;;-1.09;100.00
43818;BME280;29868;47.360;18.984;2022-12-07T19:36:36;100268.53;;;-1.11;100.00
43818;BME280;29868;47.360;18.984;2022-12-07T19:39:02;100275.91;;;-1.16;100.00
43818;BME280;29868;47.360;18.984;2022-12-07T19:41:27;100266.19;;;-1.22;100.00
43818;BME280;29868;47.360;18.984;2022-12-07T19:43:59;100271.59;;;-1.17;100.00
43818;BME280;29868;47.360;18.984;2022-12-07T19:46:24;100267.66;;;-1.12;100.00
43818;BME280;29868;47.360;18.984;2022-12-07T19:48:50;100267.56;;;-1.13;100.00
43818;BME280;29868;47.360;18.984;2022-12-07T19:51:15;100261.41;;;-1.17;100.00
43818;BME280;29868;47.360;18.984;2022-12-07T19:53:40;100265.78;;;-1.14;100.00
43818;BME280;29868;47.360;18.984;2022-12-07T19:56:06;100270.84;;;-1.01;100.00
43818;BME280;29868;47.360;18.984;2022-12-07T19:58:32;100274.03;;;-1.18;100.00
43818;BME280;29868;47.360;18.984;2022-12-07T20:01:03;100272.28;;;-1.19;100.00
43818;BME280;29868;47.360;18.984;2022-12-07T20:03:29;100283.03;;;-1.10;100.00
43818;BME280;29868;47.360;18.984;2022-12-07T20:05:54;100291.09;;;-1.17;100.00
43818;BME280;29868;47.360;18.984;2022-12-07T20:08:21;100286.31;;;-1.26;100.00
43818;BME280;29868;47.360;18.984;2022-12-07T20:10:46;100281.53;;;-1.35;100.00
43818;BME280;29868;47.360;18.984;2022-12-07T20:13:11;100287.03;;;-1.42;100.00
43818;BME280;29868;47.360;18.984;2022-12-07T20:16:02;100292.34;;;-1.52;100.00
43818;BME280;29868;47.360;18.984;2022-12-07T20:18:28;100281.47;;;-1.50;100.00
43818;BME280;29868;47.360;18.984;2022-12-07T20:20:57;100289.78;;;-1.39;100.00
43818;BME280;29868;47.360;18.984;2022-12-07T20:23:23;100290.66;;;-1.38;100.00
43818;BME280;29868;47.360;18.984;2022-12-07T20:25:48;100296.16;;;-1.45;100.00
43818;BME280;29868;47.360;18.984;2022-12-07T20:28:13;100295.88;;;-1.50;100.00
43818;BME280;29868;47.360;18.984;2022-12-07T20:30:48;100287.25;;;-1.52;100.00
43818;BME280;29868;47.360;18.984;2022-12-07T20:33:14;100300.19;;;-1.49;100.00
43818;BME280;29868;47.360;18.984;2022-12-07T20:35:39;100294.13;;;-1.51;100.00
43818;BME280;29868;47.360;18.984;2022-12-07T20:38:04;100299.38;;;-1.48;100.00
43818;BME280;29868;47.360;18.984;2022-12-07T20:40:30;100298.97;;;-1.41;100.00
43818;BME280;29868;47.360;18.984;2022-12-07T20:42:55;100299.56;;;-1.45;100.00
43818;BME280;29868;47.360;18.984;2022-12-07T20:45:20;100302.72;;;-1.49;100.00
43818;BME280;29868;47.360;18.984;2022-12-07T20:47:45;100300.16;;;-1.36;100.00
43818;BME280;29868;47.360;18.984;2022-12-07T20:50:11;100299.78;;;-1.14;100.00
43818;BME280;29868;47.360;18.984;2022-12-07T20:52:36;100311.44;;;-1.04;100.00
43818;BME280;29868;47.360;18.984;2022-12-07T20:55:01;100305.28;;;-1.08;100.00
43818;BME280;29868;47.360;18.984;2022-12-07T20:57:28;100302.53;;;-1.11;100.00
43818;BME280;29868;47.360;18.984;2022-12-07T20:59:53;100297.72;;;-1.06;100.00
43818;BME280;29868;47.360;18.984;2022-12-07T21:02:18;100305.13;;;-0.96;100.00
43818;BME280;29868;47.360;18.984;2022-12-07T21:04:43;100311.31;;;-0.92;100.00
43818;BME280;29868;47.360;18.984;2022-12-07T21:07:09;100312.97;;;-0.93;100.00
43818;BME280;29868;47.360;18.984;2022-12-07T21:09:34;100294.38;;;-0.77;100.00
43818;BME280;29868;47.360;18.984;2022-12-07T21:11:59;100297.47;;;-0.68;100.00
43818;BME280;29868;47.360;18.984;2022-12-07T21:14:24;100313.25;;;-0.60;100.00
43818;BME280;29868;47.360;18.984;2022-12-07T21:16:50;100298.44;;;-0.66;100.00
43818;BME280;29868;47.360;18.984;2022-12-07T21:19:15;100301.97;;;-0.64;100.00
43818;BME280;29868;47.360;18.984;2022-12-07T21:21:40;100296.34;;;-0.58;100.00
43818;BME280;29868;47.360;18.984;2022-12-07T21:24:06;100296.53;;;-0.55;100.00
43818;BME280;29868;47.360;18.984;2022-12-07T21:26:33;100297.78;;;-0.48;100.00
43818;BME280;29868;47.360;18.984;2022-12-07T21:28:58;100298.28;;;-0.39;100.00
43818;BME280;29868;47.360;18.984;2022-12-07T21:31:23;100298.66;;;-0.33;100.00
43818;BME280;29868;47.360;18.984;2022-12-07T21:33:49;100297.94;;;-0.31;100.00
43818;BME280;29868;47.360;18.984;2022-12-07T21:36:15;100299.72;;;-0.30;100.00
43818;BME280;29868;47.360;18.984;2022-12-07T21:38:41;100297.44;;;-0.25;100.00
43818;BME280;29868;47.360;18.984;2022-12-07T21:41:13;100308.50;;;-0.25;100.00
43818;BME280;29868;47.360;18.984;2022-12-07T21:43:39;100307.28;;;-0.16;100.00
43818;BME280;29868;47.360;18.984;2022-12-07T21:46:04;100303.22;;;-0.13;100.00
43818;BME280;29868;47.360;18.984;2022-12-07T21:48:29;100309.38;;;-0.09;100.00
43818;BME280;29868;47.360;18.984;2022-12-07T21:50:55;100307.81;;;-0.07;100.00
43818;BME280;29868;47.360;18.984;2022-12-07T21:53:20;100307.28;;;-0.02;100.00
43818;BME280;29868;47.360;18.984;2022-12-07T21:55:45;100300.66;;;0.02;100.00
43818;BME280;29868;47.360;18.984;2022-12-07T21:58:10;100303.41;;;0.05;100.00
43818;BME280;29868;47.360;18.984;2022-12-07T22:00:36;100304.81;;;0.00;100.00
43818;BME280;29868;47.360;18.984;2022-12-07T22:03:01;100305.41;;;-0.04;100.00
43818;BME280;29868;47.360;18.984;2022-12-07T22:05:27;100303.66;;;-0.05;100.00
43818;BME280;29868;47.360;18.984;2022-12-07T22:07:52;100301.66;;;-0.11;100.00
43818;BME280;29868;47.360;18.984;2022-12-07T22:10:17;100302.91;;;-0.19;100.00
43818;BME280;29868;47.360;18.984;2022-12-07T22:12:58;100303.59;;;-0.21;100.00
43818;BME280;29868;47.360;18.984;2022-12-07T22:15:24;100295.94;;;-0.36;100.00
43818;BME280;29868;47.360;18.984;2022-12-07T22:17:50;100292.13;;;-0.43;100.00
43818;BME280;29868;47.360;18.984;2022-12-07T22:20:16;100290.44;;;-0.57;100.00
43818;BME280;29868;47.360;18.984;2022-12-07T22:22:41;100287.53;;;-0.63;100.00
43818;BME280;29868;47.360;18.984;2022-12-07T22:25:07;100287.97;;;-0.70;100.00
43818;BME280;29868;47.360;18.984;2022-12-07T22:27:32;100285.91;;;-0.76;100.00
43818;BME280;29868;47.360;18.984;2022-12-07T22:29:58;100286.28;;;-0.70;100.00
43818;BME280;29868;47.360;18.984;2022-12-07T22:32:23;100289.59;;;-0.86;100.00
43818;BME280;29868;47.360;18.984;2022-12-07T22:34:48;100289.16;;;-0.93;100.00
43818;BME280;29868;47.360;18.984;2022-12-07T22:37:14;100294.66;;;-1.01;100.00
43818;BME280;29868;47.360;18.984;2022-12-07T22:39:39;100292.91;;;-1.02;100.00
43818;BME280;29868;47.360;18.984;2022-12-07T22:42:04;100296.34;;;-1.01;100.00
43818;BME280;29868;47.360;18.984;2022-12-07T22:44:29;100291.25;;;-1.01;100.00
43818;BME280;29868;47.360;18.984;2022-12-07T22:46:54;100294.59;;;-1.02;100.00
43818;BME280;29868;47.360;18.984;2022-12-07T22:49:20;100298.97;;;-1.00;100.00
43818;BME280;29868;47.360;18.984;2022-12-07T22:51:45;100294.06;;;-0.96;100.00
43818;BME280;29868;47.360;18.984;2022-12-07T22:54:14;100289.41;;;-0.89;100.00
43818;BME280;29868;47.360;18.984;2022-12-07T22:56:40;100289.38;;;-0.76;100.00
43818;BME280;29868;47.360;18.984;2022-12-07T22:59:06;100292.38;;;-0.68;100.00
43818;BME280;29868;47.360;18.984;2022-12-07T23:01:31;100280.59;;;-0.66;100.00
43818;BME280;29868;47.360;18.984;2022-12-07T23:03:56;100296.50;;;-0.70;100.00
43818;BME280;29868;47.360;18.984;2022-12-07T23:06:25;100293.16;;;-0.69;100.00
43818;BME280;29868;47.360;18.984;2022-12-07T23:08:51;100293.81;;;-0.43;100.00
43818;BME280;29868;47.360;18.984;2022-12-07T23:11:18;100288.59;;;-0.60;100.00
43818;BME280;29868;47.360;18.984;2022-12-07T23:14:03;100289.91;;;-0.66;100.00
43818;BME280;29868;47.360;18.984;2022-12-07T23:16:29;100291.22;;;-0.73;100.00
43818;BME280;29868;47.360;18.984;2022-12-07T23:18:54;100290.41;;;-0.72;100.00
43818;BME280;29868;47.360;18.984;2022-12-07T23:21:20;100299.41;;;-0.79;100.00
43818;BME280;29868;47.360;18.984;2022-12-07T23:23:45;100292.38;;;-0.68;100.00
43818;BME280;29868;47.360;18.984;2022-12-07T23:26:10;100294.72;;;-0.86;100.00
43818;BME280;29868;47.360;18.984;2022-12-07T23:28:36;100299.13;;;-0.83;100.00
43818;BME280;29868;47.360;18.984;2022-12-07T23:31:05;100295.50;;;-0.72;100.00
43818;BME280;29868;47.360;18.984;2022-12-07T23:33:31;100299.63;;;-0.89;100.00
43818;BME280;29868;47.360;18.984;2022-12-07T23:36:05;100299.25;;;-0.95;100.00
43818;BME280;29868;47.360;18.984;2022-12-07T23:38:30;100292.38;;;-0.96;100.00
43818;BME280;29868;47.360;18.984;2022-12-07T23:40:55;100292.38;;;-0.96;100.00
43818;BME280;29868;47.360;18.984;2022-12-07T23:43:21;100287.16;;;-0.69;100.00
43818;BME280;29868;47.360;18.984;2022-12-07T23:45:46;100287.50;;;-0.78;100.00
43818;BME280;29868;47.360;18.984;2022-12-07T23:48:11;100289.59;;;-0.86;100.00
43818;BME280;29868;47.360;18.984;2022-12-07T23:50:36;100283.53;;;-0.88;100.00
43818;BME280;29868;47.360;18.984;2022-12-07T23:53:02;100291.28;;;-0.86;100.00
43818;BME280;29868;47.360;18.984;2022-12-07T23:55:27;100286.69;;;-0.92;100.00
43818;BME280;29868;47.360;18.984;2022-12-07T23:57:52;100283.44;;;-0.89;100.00
